Latest Weather Observations for Salmon Gums RS

IDW60801

Issued at 9:35 pm WST Saturday 20 September 2014 (issued every 30 minutes, with the page automatically refreshed every 10 minutes)

About weather observations | Map of weather stations | Latest weather observations for WA | Other Formats
Station Details ID: 012071 Name: SALMON GUMS RES.STN. Lat: -32.99 Lon: 121.62 Height: 249.0 m
Data from the previous 72 hours. | See also: Recent months at Salmon Gums RS
Date/Time
WST
Temp
°C
App
Temp
°C
Dew
Point
Rel
Hum
%
Delta-T
°C
Wind Press
QNH
hPa
Press
MSL
hPa
Rain
since 9 am
mm
Dir
 
Spd
km/h
Gust
km/h
Spd
kts
Gust
kts
20/09:30pm 19.1 15.3 1.6 31 8.0 NE 11 15 6 8 - - 0.0
20/09:00pm 18.3 14.8 1.3 32 7.7 NE 9 13 5 7 - - 0.0
20/08:30pm 20.5 16.6 0.9 27 9.0 NE 11 17 6 9 - - 0.0
20/08:00pm 21.8 17.5 0.9 25 9.7 NNE 13 19 7 10 - - 0.0
20/07:30pm 21.9 18.1 1.6 26 9.5 NE 11 17 6 9 - - 0.0
20/07:00pm 20.9 17.5 1.7 28 9.0 NNE 9 13 5 7 - - 0.0
20/06:30pm 22.3 18.9 1.9 26 9.6 N 9 11 5 6 - - 0.0
20/06:00pm 24.0 20.6 1.6 23 10.7 NNE 9 11 5 6 - - 0.0
20/05:30pm 26.5 22.7 1.7 20 12.0 NNE 11 20 6 11 - - 0.0
20/05:00pm 27.9 23.0 2.2 19 12.7 NNE 17 28 9 15 - - 0.0
20/04:30pm 28.5 23.8 3.4 20 12.7 NNE 17 30 9 16 - - 0.0
20/04:00pm 28.6 23.2 2.7 19 13.0 NNE 20 35 11 19 - - 0.0
20/03:30pm 29.3 23.7 3.3 19 13.2 NNE 22 35 12 19 - - 0.0
20/03:00pm 29.1 24.2 3.9 20 12.9 NNE 19 30 10 16 - - 0.0
20/02:30pm 28.5 23.0 4.1 21 12.5 NNE 22 35 12 19 - - 0.0
20/02:00pm 28.0 22.9 4.3 22 12.2 NNE 20 35 11 19 - - 0.0
20/01:30pm 28.2 23.6 5.7 24 11.9 N 19 28 10 15 - - 0.0
20/01:00pm 27.0 22.5 5.9 26 11.1 NNE 19 28 10 15 - - 0.0
20/12:30pm 26.4 21.8 6.4 28 10.6 NNE 20 30 11 16 - - 0.0
20/12:00pm 25.3 19.9 6.5 30 9.9 NNE 24 33 13 18 - - 0.0
20/11:30am 23.9 19.8 6.2 32 9.2 NNE 17 28 9 15 - - 0.0
20/11:00am 22.6 18.6 6.8 36 8.2 NE 17 24 9 13 - - 0.0
20/10:30am 20.8 16.4 6.4 39 7.3 ENE 19 26 10 14 - - 0.0
20/10:00am 18.7 14.8 6.9 46 6.0 ENE 17 26 9 14 - - 0.0
20/09:30am 17.4 13.8 8.3 55 4.7 NE 17 22 9 12 - - 0.0
20/09:00am 15.4 11.9 8.6 64 3.5 ENE 17 26 9 14 - - 0.2
20/08:30am 13.3 9.9 9.2 76 2.1 NE 17 26 9 14 - - 0.2
20/08:00am 11.7 8.6 10.3 91 0.7 NE 17 26 9 14 - - 0.2
20/07:30am 10.8 9.1 10.0 95 0.4 NE 9 17 5 9 - - 0.2
20/07:00am 9.0 7.5 8.4 96 0.3 NE 6 9 3 5 - - 0.0
20/06:30am 6.2 4.4 5.6 96 0.3 NE 4 6 2 3 - - 0.0
20/06:00am 4.9 2.9 4.2 95 0.3 NE 4 6 2 3 - - 0.0
20/05:30am 4.6 2.5 3.7 94 0.4 NE 4 4 2 2 - - 0.0
20/05:00am 6.0 4.2 5.3 95 0.3 NE 4 4 2 2 - - 0.0
20/04:30am 6.7 5.0 6.0 95 0.3 NE 4 6 2 3 - - 0.0
20/04:00am 6.9 4.9 6.2 95 0.3 ENE 6 9 3 5 - - 0.0
20/03:30am 7.6 5.7 6.9 95 0.3 ENE 6 6 3 3 - - 0.0
20/03:00am 7.7 5.6 6.8 94 0.4 ENE 7 9 4 5 - - 0.0
20/02:30am 8.5 6.8 7.7 95 0.4 ENE 6 9 3 5 - - 0.0
20/02:00am 8.7 6.5 7.8 94 0.4 E 9 11 5 6 - - 0.0
20/01:30am 9.0 6.5 8.1 94 0.4 E 11 13 6 7 - - 0.0
20/01:00am 9.3 6.8 8.4 94 0.4 E 11 13 6 7 - - 0.0
20/12:30am 9.5 7.5 8.6 94 0.4 E 9 13 5 7 - - 0.0
20/12:00am 9.4 7.4 8.5 94 0.4 ESE 9 11 5 6 - - 0.0
 
Date/Time
WST
Temp
°C
App
Temp
°C
Dew
Point
Rel
Hum
%
Delta-T
°C
Wind Press
QNH
hPa
Press
MSL
hPa
Rain
since 9 am
mm
Dir
 
Spd
km/h
Gust
km/h
Spd
kts
Gust
kts
19/11:30pm 9.8 8.2 8.7 93 0.5 E 7 11 4 6 - - 0.0
19/11:00pm 10.9 8.8 9.8 93 0.6 ESE 11 17 6 9 - - 0.0
19/10:30pm 10.9 9.2 9.8 93 0.6 ESE 9 11 5 6 - - 0.0
19/10:00pm 10.7 8.9 9.5 92 0.6 SE 9 11 5 6 - - 0.0
19/09:30pm 10.9 9.5 9.5 91 0.7 SE 7 11 4 6 - - 0.0
19/09:00pm 11.9 10.4 10.5 91 0.7 SE 9 13 5 7 - - 0.0
19/08:30pm 12.5 11.0 10.7 89 0.9 SE 9 15 5 8 - - 0.0
19/08:00pm 13.4 11.3 11.3 87 1.1 SE 13 19 7 10 - - 0.0
19/07:30pm 14.2 12.3 11.7 85 1.4 SSE 13 17 7 9 - - 0.0
19/07:00pm 15.2 13.4 12.0 81 1.8 SSE 13 19 7 10 - - 0.0
19/06:30pm 16.1 13.6 11.1 72 2.7 S 15 22 8 12 - - 0.0
19/06:00pm 17.4 14.6 11.4 68 3.3 S 17 24 9 13 - - 0.0
19/05:30pm 18.8 15.4 11.4 62 4.1 S 20 28 11 15 - - 0.0
19/05:00pm 20.4 17.2 11.1 55 5.2 S 19 24 10 13 - - 0.0
19/04:30pm 21.9 18.7 10.1 47 6.5 S 17 26 9 14 - - 0.0
19/04:00pm 23.0 20.0 9.4 42 7.4 S 15 20 8 11 - - 0.0
19/03:30pm 23.4 20.3 8.7 39 7.9 S 15 24 8 13 - - 0.0
19/03:00pm 23.4 19.5 9.4 41 7.7 S 20 30 11 16 - - 0.0
19/02:30pm 23.6 20.5 8.8 39 8.0 S 15 22 8 12 - - 0.0
19/02:00pm 24.1 21.1 9.3 39 8.1 S 15 22 8 12 - - 0.0
19/01:30pm 23.3 20.6 9.0 40 7.8 S 13 24 7 13 - - 0.0
19/01:00pm 24.0 21.1 9.6 40 7.9 S 15 24 8 13 - - 0.0
19/12:30pm 23.2 19.0 9.6 42 7.5 SSE 22 30 12 16 - - 0.0
19/12:00pm 23.4 20.1 9.4 41 7.7 S 17 26 9 14 - - 0.0
19/11:30am 22.3 19.6 10.5 47 6.5 SSW 15 24 8 13 - - 0.0
19/11:00am 21.6 19.0 10.7 50 6.0 S 15 22 8 12 - - 0.0
19/10:30am 21.3 18.9 11.3 53 5.6 SSW 15 20 8 11 - - 0.0
19/10:00am 20.4 17.2 11.3 56 5.1 S 19 28 10 15 - - 0.0
19/09:30am 19.9 16.5 11.1 57 4.9 S 20 32 11 17 - - 0.0
19/09:00am 17.6 13.8 11.2 66 3.5 SSW 22 30 12 16 - - 0.0
19/08:30am 17.8 14.8 12.7 72 2.9 SSW 20 32 11 17 - - 0.0
19/08:00am 15.3 12.7 13.3 88 1.1 SSW 19 28 10 15 - - 0.0
19/07:30am 14.7 13.4 13.6 93 0.6 SSW 13 17 7 9 - - 0.0
19/07:00am 14.1 13.9 13.0 93 0.6 SW 6 9 3 5 - - 0.0
19/06:30am 13.2 13.2 12.3 94 0.5 SW 4 6 2 3 - - 0.0
19/06:00am 13.0 12.3 12.1 94 0.5 SW 7 11 4 6 - - 0.0
19/05:30am 12.9 12.1 11.8 93 0.6 SW 7 13 4 7 - - 0.0
19/05:00am 12.9 12.1 11.8 93 0.6 SSW 7 13 4 7 - - 0.0
19/04:30am 13.4 12.0 12.3 93 0.6 SW 11 17 6 9 - - 0.0
19/04:00am 13.3 11.9 12.2 93 0.6 SW 11 17 6 9 - - 0.0
19/03:30am 13.5 11.8 12.4 93 0.6 SW 13 20 7 11 - - 0.0
19/03:00am 11.9 10.4 10.5 91 0.7 WSW 9 17 5 9 - - 0.0
19/02:30am 9.8 8.5 5.8 76 1.9 W 2 4 1 2 - - 0.0
19/02:00am 12.3 10.5 7.2 71 2.5 W 6 9 3 5 - - 0.0
19/01:30am 12.9 10.7 9.2 78 1.9 W 11 17 6 9 - - 0.0
19/01:00am 11.0 9.4 6.2 72 2.3 NNE 4 6 2 3 - - 0.0
19/12:30am 12.4 11.7 7.1 70 2.6 CALM 0 0 0 0 - - 0.0
19/12:00am 14.4 13.1 7.7 64 3.4 ENE 4 7 2 4 - - 0.0
 
Date/Time
WST
Temp
°C
App
Temp
°C
Dew
Point
Rel
Hum
%
Delta-T
°C
Wind Press
QNH
hPa
Press
MSL
hPa
Rain
since 9 am
mm
Dir
 
Spd
km/h
Gust
km/h
Spd
kts
Gust
kts
18/11:30pm 15.2 13.0 8.0 62 3.7 NE 9 15 5 8 - - 0.0
18/11:00pm 15.3 12.8 8.1 62 3.7 NE 11 17 6 9 - - 0.0
18/10:30pm 15.4 13.2 7.7 60 3.9 NE 9 15 5 8 - - 0.0
18/10:00pm 15.7 13.5 8.0 60 3.9 ENE 9 13 5 7 - - 0.0
18/09:30pm 16.6 14.1 8.1 57 4.4 NE 11 15 6 8 - - 0.0
18/09:00pm 17.3 14.8 8.2 55 4.7 NE 11 15 6 8 - - 0.0
18/08:30pm 17.7 15.5 8.0 53 5.0 NE 9 13 5 7 - - 0.0
18/08:00pm 18.0 15.8 8.0 52 5.2 ENE 9 13 5 7 - - 0.0
18/07:30pm 18.5 16.5 7.3 48 5.7 NE 7 9 4 5 - - 0.0
18/07:00pm 19.6 17.2 7.0 44 6.5 NE 9 11 5 6 - - 0.0
18/06:30pm 20.9 18.2 7.2 41 7.1 NE 11 15 6 8 - - 0.0
18/06:00pm 22.2 19.8 6.8 37 8.0 ENE 9 11 5 6 - - 0.0
18/05:30pm 24.3 20.9 6.1 31 9.4 ENE 13 19 7 10 - - 0.0
18/05:00pm 26.0 23.2 5.0 26 10.8 NE 9 17 5 9 - - 0.0
18/04:30pm 26.5 22.1 4.9 25 11.1 ENE 17 24 9 13 - - 0.0
18/04:00pm 27.2 23.7 5.5 25 11.3 NE 13 24 7 13 - - 0.0
18/03:30pm 27.1 23.5 4.8 24 11.5 ENE 13 30 7 16 - - 0.0
18/03:00pm 27.3 23.6 6.1 26 11.2 NE 15 30 8 16 - - 0.0
18/02:30pm 27.2 23.1 6.0 26 11.2 NNE 17 24 9 13 - - 0.0
18/02:00pm 26.7 22.9 5.6 26 11.0 NE 15 24 8 13 - - 0.0
18/01:30pm 26.8 22.2 5.7 26 11.0 ENE 19 30 10 16 - - 0.0
18/01:00pm 26.0 21.9 6.1 28 10.4 NE 17 26 9 14 - - 0.0
18/12:30pm 25.3 20.9 6.5 30 9.9 NNE 19 32 10 17 - - 0.0
18/12:00pm 24.9 20.3 6.6 31 9.6 NNE 20 33 11 18 - - 0.0
18/11:30am 24.2 20.1 6.0 31 9.4 NNE 17 28 9 15 - - 0.0
18/11:00am 22.8 18.1 6.1 34 8.6 NNE 20 32 11 17 - - 0.0
18/10:30am 22.2 17.1 6.0 35 8.3 NNE 22 33 12 18 - - 0.0
18/10:00am 20.9 16.3 6.4 39 7.4 NNE 20 33 11 18 - - 0.0
18/09:30am 20.2 15.8 7.6 44 6.6 NNE 20 32 11 17 - - 0.0
18/09:00am 18.2 12.9 7.0 48 5.7 NNE 24 32 13 17 - - 1.8
18/08:30am 16.9 12.5 7.3 53 4.9 NE 20 32 11 17 - - 1.8
18/08:00am 16.7 13.6 8.7 59 4.2 NE 15 22 8 12 - - 1.8
18/07:30am 14.3 10.9 7.8 65 3.3 NE 15 26 8 14 - - 1.8
18/07:00am 13.8 9.4 7.6 66 3.1 NNE 20 30 11 16 - - 1.8
18/06:30am 13.2 9.0 7.4 68 2.9 NNE 19 30 10 16 - - 1.8
18/06:00am 13.3 9.1 7.5 68 2.9 NNE 19 30 10 16 - - 1.8
18/05:30am 13.2 8.9 7.9 70 2.6 NNE 20 32 11 17 - - 1.8
18/05:00am 13.2 9.2 8.1 71 2.6 NNE 19 32 10 17 - - 1.8
18/04:30am 12.8 9.6 8.3 74 2.3 NE 15 22 8 12 - - 1.8
18/04:00am 12.7 9.3 9.0 78 1.9 NE 17 22 9 12 - - 1.8
18/03:30am 12.4 9.4 9.4 82 1.5 ENE 15 20 8 11 - - 1.8
18/03:00am 12.5 9.6 9.5 82 1.5 ENE 15 20 8 11 - - 1.8
18/02:30am 12.6 10.1 9.6 82 1.5 ENE 13 22 7 12 - - 1.8
18/02:00am 12.6 10.4 9.4 81 1.6 E 11 19 6 10 - - 1.8
18/01:30am 13.1 10.6 9.7 80 1.8 E 13 20 7 11 - - 1.8
18/01:00am 13.7 10.0 10.1 79 1.9 E 20 30 11 16 - - 1.8
18/12:30am 13.6 9.6 10.6 82 1.6 E 22 35 12 19 - - 1.8
18/12:00am 13.6 10.2 10.6 82 1.6 E 19 22 10 12 - - 1.6
 
Date/Time
WST
Temp
°C
App
Temp
°C
Dew
Point
Rel
Hum
%
Delta-T
°C
Wind Press
QNH
hPa
Press
MSL
hPa
Rain
since 9 am
mm
Dir
 
Spd
km/h
Gust
km/h
Spd
kts
Gust
kts
17/11:30pm 13.6 9.8 11.0 84 1.4 E 22 28 12 15 - - 1.6
17/11:00pm 14.4 11.7 10.2 76 2.2 ENE 15 20 8 11 - - 0.8
17/10:30pm 15.2 12.0 9.8 70 2.8 E 17 22 9 12 - - 0.2
17/10:00pm 15.7 13.0 8.9 64 3.5 E 13 19 7 10 - - 0.0

Other Formats:

Comma delimited format used in spreadsheet applications
http://www.bom.gov.au/fwo/IDW60801/IDW60801.95639.axf

JavaScript Object Notation format (JSON) in row-major order
http://www.bom.gov.au/fwo/IDW60801/IDW60801.95639.json